createdAt,value
2019-03-20T00:00:50.063Z,101889.83
2019-03-20T00:03:17.125Z,101890.77
2019-03-20T00:05:44.186Z,101889.12
2019-03-20T00:08:11.263Z,101885.64
2019-03-20T00:10:38.318Z,101882.61
2019-03-20T00:13:05.409Z,101879.15
2019-03-20T00:15:32.463Z,101868.72
2019-03-20T00:17:59.540Z,101865.69
2019-03-20T00:20:26.601Z,101862.20
2019-03-20T00:22:53.664Z,101866.12
2019-03-20T00:25:21.604Z,101863.94
2019-03-20T00:27:50.526Z,101870.03
2019-03-20T00:30:17.656Z,101864.39
2019-03-20T00:32:45.273Z,101861.78
2019-03-20T00:35:12.337Z,101852.63
2019-03-20T00:37:39.399Z,101859.09
2019-03-20T00:40:07.491Z,101863.85
2019-03-20T00:42:35.593Z,101857.31
2019-03-20T00:45:02.870Z,101850.70
2019-03-20T00:47:29.951Z,101853.68
2019-03-20T00:49:58.106Z,101853.17
2019-03-20T00:52:25.298Z,101849.27
2019-03-20T00:54:52.383Z,101847.53
2019-03-20T00:57:19.445Z,101847.59
2019-03-20T00:59:46.512Z,101839.71
2019-03-20T01:02:13.604Z,101834.02
2019-03-20T01:04:42.027Z,101833.09
2019-03-20T01:07:10.296Z,101825.67
2019-03-20T01:09:37.363Z,101833.42
2019-03-20T01:12:04.469Z,101830.80
2019-03-20T01:14:31.539Z,101828.64
2019-03-20T01:16:58.610Z,101828.64
2019-03-20T01:19:25.673Z,101816.47
2019-03-20T01:21:52.723Z,101809.47
2019-03-20T01:24:19.787Z,101805.47
2019-03-20T01:26:46.864Z,101805.42
2019-03-20T01:29:13.929Z,101813.17
2019-03-20T01:31:40.995Z,101817.88
2019-03-20T01:34:08.074Z,101818.19
2019-03-20T01:36:35.197Z,101817.22
2019-03-20T01:39:03.938Z,101818.86
2019-03-20T01:41:38.076Z,101826.16
2019-03-20T01:44:00.012Z,101824.44
2019-03-20T01:46:27.082Z,101827.49
2019-03-20T01:48:54.183Z,101822.77
2019-03-20T01:51:21.392Z,101814.10
2019-03-20T01:53:48.590Z,101808.13
2019-03-20T01:56:15.672Z,101796.16
2019-03-20T01:58:42.729Z,101796.75
2019-03-20T02:01:09.987Z,101807.77
2019-03-20T02:03:37.062Z,101801.39
2019-03-20T02:06:04.140Z,101807.30
2019-03-20T02:08:33.343Z,101803.05
2019-03-20T02:11:00.438Z,101802.79
2019-03-20T02:13:27.504Z,101793.80
2019-03-20T02:15:54.581Z,101787.41
2019-03-20T02:18:21.704Z,101784.06
2019-03-20T02:20:49.072Z,101780.62
2019-03-20T02:23:16.144Z,101775.55
2019-03-20T02:25:43.205Z,101766.96
2019-03-20T02:28:10.265Z,101764.00
2019-03-20T02:30:37.324Z,101759.39
2019-03-20T02:33:04.638Z,101756.50
2019-03-20T02:35:31.700Z,101756.21
2019-03-20T02:37:58.767Z,101747.66
2019-03-20T02:40:25.879Z,101742.08
2019-03-20T02:42:52.895Z,101733.52
2019-03-20T02:45:19.969Z,101731.85
2019-03-20T02:47:47.034Z,101721.07
2019-03-20T02:50:15.806Z,101724.67
2019-03-20T02:52:42.875Z,101721.27
2019-03-20T02:55:09.949Z,101724.83
2019-03-20T02:57:36.998Z,101717.94
2019-03-20T03:00:05.922Z,101717.13
2019-03-20T03:02:33.084Z,101720.19
2019-03-20T03:05:00.417Z,101723.30
2019-03-20T03:07:27.525Z,101718.58
2019-03-20T03:09:54.661Z,101720.33
2019-03-20T03:12:21.720Z,101715.16
2019-03-20T03:14:48.818Z,101718.23
2019-03-20T03:17:15.867Z,101708.27
2019-03-20T03:19:42.983Z,101698.71
2019-03-20T03:22:10.087Z,101694.41
2019-03-20T03:24:37.145Z,101692.30
2019-03-20T03:27:04.225Z,101687.58
2019-03-20T03:29:31.291Z,101676.27
2019-03-20T03:31:58.353Z,101673.70
2019-03-20T03:34:25.425Z,101681.13
2019-03-20T03:36:52.493Z,101678.63
2019-03-20T03:39:19.552Z,101678.24
2019-03-20T03:41:46.609Z,101669.97
2019-03-20T03:44:13.695Z,101666.06
2019-03-20T03:46:40.730Z,101653.48
2019-03-20T03:49:07.785Z,101643.05
2019-03-20T03:51:34.847Z,101637.83
2019-03-20T03:54:01.919Z,101638.31
2019-03-20T03:56:28.992Z,101626.14
2019-03-20T03:58:56.073Z,101626.66
2019-03-20T04:01:23.163Z,101621.88
2019-03-20T04:03:50.214Z,101626.29
2019-03-20T04:06:17.381Z,101625.05
2019-03-20T04:08:44.442Z,101630.77
2019-03-20T04:11:11.501Z,101623.84
2019-03-20T04:13:38.567Z,101623.90
2019-03-20T04:16:05.646Z,101625.70
2019-03-20T04:18:32.722Z,101618.73
2019-03-20T04:20:59.778Z,101612.63
2019-03-20T04:23:26.857Z,101604.38
2019-03-20T04:25:53.932Z,101604.84
2019-03-20T04:28:21.003Z,101600.97
2019-03-20T04:30:48.204Z,101591.44
2019-03-20T04:33:15.282Z,101596.23
2019-03-20T04:35:42.356Z,101596.73
2019-03-20T04:38:09.422Z,101593.67
2019-03-20T04:40:36.499Z,101590.63
2019-03-20T04:43:03.682Z,101590.19
2019-03-20T04:45:31.223Z,101594.59
2019-03-20T04:47:58.296Z,101588.06
2019-03-20T04:50:25.362Z,101582.02
2019-03-20T04:52:52.415Z,101569.37
2019-03-20T04:55:19.477Z,101574.17
2019-03-20T04:57:46.628Z,101572.03
2019-03-20T05:00:14.129Z,101575.53
2019-03-20T05:02:41.184Z,101576.00
2019-03-20T05:05:08.279Z,101571.22
2019-03-20T05:07:35.353Z,101564.25
2019-03-20T05:10:02.568Z,101564.69
2019-03-20T05:12:29.739Z,101557.27
2019-03-20T05:14:56.818Z,101556.36
2019-03-20T05:17:23.889Z,101549.34
2019-03-20T05:19:50.948Z,101544.06
2019-03-20T05:22:18.059Z,101542.80
2019-03-20T05:24:45.148Z,101535.82
2019-03-20T05:27:12.218Z,101541.55
2019-03-20T05:29:39.455Z,101530.69
2019-03-20T05:32:06.519Z,101525.03
2019-03-20T05:34:33.582Z,101532.48
2019-03-20T05:37:09.837Z,101524.68
2019-03-20T05:39:29.641Z,101527.34
2019-03-20T05:41:57.031Z,101526.51
2019-03-20T05:44:24.116Z,101520.02
2019-03-20T05:46:51.185Z,101523.94
2019-03-20T05:49:18.286Z,101517.48
2019-03-20T05:51:45.417Z,101513.59
2019-03-20T05:54:12.471Z,101508.80
2019-03-20T05:56:39.559Z,101504.09
2019-03-20T05:59:06.701Z,101506.74
2019-03-20T06:01:33.859Z,101505.03
2019-03-20T06:04:00.947Z,101503.77
2019-03-20T06:06:30.144Z,101502.94
2019-03-20T06:08:57.199Z,101504.75
2019-03-20T06:11:24.270Z,101498.68
2019-03-20T06:13:51.404Z,101505.70
2019-03-20T06:16:18.493Z,101498.72
2019-03-20T06:18:45.548Z,101497.04
2019-03-20T06:21:12.629Z,101485.70
2019-03-20T06:23:39.711Z,101483.98
2019-03-20T06:26:06.793Z,101476.59
2019-03-20T06:28:33.878Z,101480.56
2019-03-20T06:31:00.971Z,101470.13
2019-03-20T06:33:28.032Z,101476.63
2019-03-20T06:35:55.096Z,101470.12
2019-03-20T06:38:22.146Z,101467.97
2019-03-20T06:40:49.212Z,101465.38
2019-03-20T06:43:16.278Z,101460.17
2019-03-20T06:45:43.334Z,101451.91
2019-03-20T06:48:10.400Z,101444.90
2019-03-20T06:50:37.465Z,101444.46
2019-03-20T06:53:04.526Z,101436.58
2019-03-20T06:55:31.615Z,101437.02
2019-03-20T06:57:58.678Z,101437.92
2019-03-20T07:00:51.521Z,101436.17
2019-03-20T07:03:28.844Z,101435.33
2019-03-20T07:06:16.106Z,101417.88
2019-03-20T07:08:47.265Z,101413.95
2019-03-20T07:11:17.073Z,101403.47
2019-03-20T07:13:44.124Z,101410.94
2019-03-20T07:16:11.206Z,101403.52
2019-03-20T07:18:38.284Z,101396.55
2019-03-20T07:21:05.353Z,101387.83
2019-03-20T07:23:32.426Z,101373.42
2019-03-20T07:25:59.490Z,101367.33
2019-03-20T07:28:26.662Z,101374.36
2019-03-20T07:30:53.730Z,101368.27
2019-03-20T07:33:20.790Z,101365.69
2019-03-20T07:35:47.853Z,101367.02
2019-03-20T07:38:15.071Z,101353.03
2019-03-20T07:40:43.024Z,101351.75
2019-03-20T07:43:10.138Z,101354.84
2019-03-20T07:45:37.201Z,101345.69
2019-03-20T07:48:04.420Z,101348.33
2019-03-20T07:50:31.523Z,101339.60
2019-03-20T07:52:58.592Z,101329.12
2019-03-20T07:55:25.660Z,101328.67
2019-03-20T07:57:52.740Z,101322.57
2019-03-20T08:00:19.807Z,101324.33
2019-03-20T08:02:46.868Z,101321.72
2019-03-20T08:05:13.966Z,101329.19
2019-03-20T08:07:41.026Z,101323.95
2019-03-20T08:10:10.188Z,101325.69
2019-03-20T08:12:37.231Z,101319.61
2019-03-20T08:15:06.572Z,101330.51
2019-03-20T08:17:33.586Z,101331.42
2019-03-20T08:20:00.679Z,101331.87
2019-03-20T08:22:27.719Z,101338.87
2019-03-20T08:24:55.881Z,101326.20
2019-03-20T08:27:23.091Z,101338.86
2019-03-20T08:29:50.154Z,101350.26
2019-03-20T08:32:17.237Z,101336.68
2019-03-20T08:34:44.301Z,101346.31
2019-03-20T08:37:11.367Z,101344.16
2019-03-20T08:39:38.432Z,101342.41
2019-03-20T08:42:05.493Z,101355.08
2019-03-20T08:44:32.579Z,101354.64
2019-03-20T08:46:59.687Z,101352.89
2019-03-20T08:49:26.746Z,101357.72
2019-03-20T08:51:53.805Z,101349.41
2019-03-20T08:54:20.859Z,101346.80
2019-03-20T08:56:47.919Z,101342.41
2019-03-20T08:59:15.019Z,101330.18
2019-03-20T09:01:42.159Z,101342.86
2019-03-20T09:04:09.222Z,101350.72
2019-03-20T09:06:36.347Z,101352.04
2019-03-20T09:09:06.711Z,101363.85
2019-03-20T09:11:33.776Z,101366.94
2019-03-20T09:14:00.877Z,101361.66
2019-03-20T09:16:27.934Z,101363.44
2019-03-20T09:18:55.007Z,101352.92
2019-03-20T09:21:22.077Z,101356.88
2019-03-20T09:23:49.187Z,101351.61
2019-03-20T09:26:16.264Z,101349.88
2019-03-20T09:28:43.326Z,101347.67
2019-03-20T09:31:10.387Z,101344.17
2019-03-20T09:33:37.449Z,101344.19
2019-03-20T09:36:04.524Z,101347.67
2019-03-20T09:38:42.691Z,101343.30
2019-03-20T09:41:00.579Z,101342.88
2019-03-20T09:43:27.651Z,101349.88
2019-03-20T09:45:56.879Z,101348.14
2019-03-20T09:48:23.724Z,101358.17
2019-03-20T09:50:50.809Z,101359.06
2019-03-20T09:53:17.871Z,101354.26
2019-03-20T09:55:44.945Z,101352.93
2019-03-20T09:58:12.158Z,101348.11
2019-03-20T10:00:39.192Z,101339.37
2019-03-20T10:03:06.298Z,101346.36
2019-03-20T10:05:33.354Z,101342.84
2019-03-20T10:08:00.413Z,101337.15
2019-03-20T10:10:27.505Z,101327.94
2019-03-20T10:12:54.607Z,101324.02
2019-03-20T10:15:21.743Z,101330.11
2019-03-20T10:17:48.820Z,101338.87
2019-03-20T10:20:17.058Z,101348.08
2019-03-20T10:22:44.138Z,101352.02
2019-03-20T10:25:11.540Z,101348.07
2019-03-20T10:27:38.700Z,101356.38
2019-03-20T10:30:08.734Z,101357.27
2019-03-20T10:32:35.830Z,101352.02
2019-03-20T10:35:03.338Z,101353.33
2019-03-20T10:37:30.407Z,101346.31
2019-03-20T10:39:57.508Z,101344.57
2019-03-20T10:42:24.609Z,101345.84
2019-03-20T10:44:51.677Z,101324.38
2019-03-20T10:47:18.767Z,101330.50
2019-03-20T10:49:45.864Z,101329.18
2019-03-20T10:52:12.980Z,101326.08
2019-03-20T10:54:40.055Z,101321.67
2019-03-20T10:57:07.132Z,101317.71
2019-03-20T10:59:34.216Z,101321.63
2019-03-20T11:02:01.285Z,101318.11
2019-03-20T11:04:28.401Z,101325.52
2019-03-20T11:06:55.458Z,101330.76
2019-03-20T11:09:22.521Z,101323.74
2019-03-20T11:11:49.631Z,101324.17
2019-03-20T11:14:16.687Z,101321.09
2019-03-20T11:16:43.755Z,101326.73
2019-03-20T11:19:10.865Z,101328.05
2019-03-20T11:21:37.899Z,101335.48
2019-03-20T11:24:05.000Z,101340.28
2019-03-20T11:26:32.073Z,101340.73
2019-03-20T11:28:59.144Z,101334.59
2019-03-20T11:31:26.221Z,101334.16
2019-03-20T11:33:53.301Z,101341.16
2019-03-20T11:36:20.368Z,101336.31
2019-03-20T11:38:47.439Z,101335.46
2019-03-20T11:41:14.555Z,101330.62
2019-03-20T11:43:41.635Z,101323.13
2019-03-20T11:46:08.707Z,101325.72
2019-03-20T11:48:35.863Z,101324.77
2019-03-20T11:51:02.976Z,101322.10
2019-03-20T11:53:30.139Z,101319.40
2019-03-20T11:55:57.243Z,101325.42
2019-03-20T11:58:24.338Z,101320.58
2019-03-20T12:00:51.443Z,101324.91
2019-03-20T12:03:18.517Z,101329.24
2019-03-20T12:05:45.583Z,101326.09
2019-03-20T12:08:12.692Z,101322.13
2019-03-20T12:10:39.788Z,101328.69
2019-03-20T12:13:06.862Z,101328.64
2019-03-20T12:15:33.935Z,101331.22
2019-03-20T12:18:01.012Z,101323.70
2019-03-20T12:20:28.072Z,101325.00
2019-03-20T12:22:55.263Z,101323.66
2019-03-20T12:25:24.412Z,101331.95
2019-03-20T12:27:51.492Z,101331.44
2019-03-20T12:30:20.662Z,101332.25
2019-03-20T12:32:47.733Z,101329.55
2019-03-20T12:35:14.986Z,101331.25
2019-03-20T12:37:42.065Z,101334.73
2019-03-20T12:40:13.362Z,101340.42
2019-03-20T12:42:40.419Z,101329.42
2019-03-20T12:45:09.774Z,101324.53
2019-03-20T12:47:36.844Z,101340.29
2019-03-20T12:50:04.451Z,101336.68
2019-03-20T12:52:31.520Z,101335.71
2019-03-20T12:54:58.639Z,101342.27
2019-03-20T12:57:25.719Z,101332.97
2019-03-20T12:59:52.784Z,101331.54
2019-03-20T13:02:19.856Z,101337.57
2019-03-20T13:04:46.926Z,101339.23
2019-03-20T13:07:14.034Z,101332.96
2019-03-20T13:09:41.638Z,101329.75
2019-03-20T13:12:08.696Z,101327.48
2019-03-20T13:14:35.782Z,101330.95
2019-03-20T13:17:02.858Z,101330.45
2019-03-20T13:19:29.925Z,101329.50
2019-03-20T13:21:56.996Z,101320.63
2019-03-20T13:24:24.107Z,101322.31
2019-03-20T13:26:51.167Z,101331.84
2019-03-20T13:29:18.294Z,101333.06
2019-03-20T13:31:45.352Z,101337.79
2019-03-20T13:34:12.435Z,101331.59
2019-03-20T13:36:42.205Z,101336.42
2019-03-20T13:39:12.082Z,101339.89
2019-03-20T13:41:39.105Z,101338.11
2019-03-20T13:44:06.253Z,101354.78
2019-03-20T13:46:33.322Z,101346.35
2019-03-20T13:49:00.419Z,101341.38
2019-03-20T13:51:27.552Z,101343.93
2019-03-20T13:53:54.617Z,101345.56
2019-03-20T13:56:21.696Z,101356.13
2019-03-20T13:58:48.837Z,101351.16
2019-03-20T14:01:15.987Z,101356.45
2019-03-20T14:03:43.060Z,101353.24
2019-03-20T14:06:10.143Z,101348.23
2019-03-20T14:08:37.290Z,101357.94
2019-03-20T14:11:04.381Z,101353.47
2019-03-20T14:13:31.512Z,101355.70
2019-03-20T14:15:58.576Z,101348.69
2019-03-20T14:18:25.642Z,101353.97
2019-03-20T14:20:52.718Z,101358.75
2019-03-20T14:23:19.772Z,101379.36
2019-03-20T14:25:46.874Z,101380.67
2019-03-20T14:28:13.970Z,101376.60
2019-03-20T14:30:41.008Z,101381.42
2019-03-20T14:33:08.094Z,101382.70
2019-03-20T14:35:35.156Z,101378.23
2019-03-20T14:38:02.243Z,101381.33
2019-03-20T14:40:35.411Z,101391.00
2019-03-20T14:42:58.351Z,101397.45
2019-03-20T14:45:25.477Z,101393.17
2019-03-20T14:47:52.849Z,101387.07
2019-03-20T14:50:21.700Z,101391.45
2019-03-20T14:52:48.767Z,101399.33
2019-03-20T14:55:15.831Z,101398.41
2019-03-20T14:57:44.678Z,101398.36
2019-03-20T15:00:14.734Z,101403.65
2019-03-20T15:02:41.813Z,101405.80
2019-03-20T15:05:08.975Z,101416.37
2019-03-20T15:07:36.042Z,101416.81
2019-03-20T15:10:03.868Z,101414.64
2019-03-20T15:12:30.932Z,101421.72
2019-03-20T15:14:58.007Z,101411.14
2019-03-20T15:17:25.062Z,101407.22
2019-03-20T15:19:52.145Z,101418.66
2019-03-20T15:22:19.197Z,101420.44
2019-03-20T15:24:46.302Z,101428.34
2019-03-20T15:27:13.375Z,101436.72
2019-03-20T15:29:40.453Z,101433.63
2019-03-20T15:32:07.547Z,101447.77
2019-03-20T15:34:34.595Z,101450.01
2019-03-20T15:37:01.657Z,101443.85
2019-03-20T15:39:28.733Z,101440.73
2019-03-20T15:41:55.791Z,101445.08
2019-03-20T15:44:22.867Z,101442.88
2019-03-20T15:46:49.988Z,101443.23
2019-03-20T15:49:17.052Z,101448.48
2019-03-20T15:51:44.143Z,101455.14
2019-03-20T15:54:11.208Z,101460.90
2019-03-20T15:56:38.301Z,101459.56
2019-03-20T15:59:05.362Z,101468.73
2019-03-20T16:01:32.440Z,101462.17
2019-03-20T16:03:59.528Z,101461.80
2019-03-20T16:06:26.596Z,101467.56
2019-03-20T16:08:56.712Z,101471.53
2019-03-20T16:11:22.598Z,101480.79
2019-03-20T16:13:49.706Z,101475.95
2019-03-20T16:16:16.764Z,101471.53
2019-03-20T16:18:43.877Z,101472.86
2019-03-20T16:21:10.955Z,101472.45
2019-03-20T16:23:38.101Z,101471.53
2019-03-20T16:26:05.159Z,101473.81
2019-03-20T16:28:32.211Z,101466.38
2019-03-20T16:30:59.267Z,101471.31
2019-03-20T16:33:26.334Z,101472.69
2019-03-20T16:35:53.430Z,101475.89
2019-03-20T16:38:20.481Z,101477.30
2019-03-20T16:40:47.618Z,101480.45
2019-03-20T16:43:14.742Z,101477.00
2019-03-20T16:45:41.826Z,101488.52
2019-03-20T16:48:08.916Z,101495.60
2019-03-20T16:50:35.994Z,101501.44
2019-03-20T16:53:03.477Z,101510.73
2019-03-20T16:55:30.543Z,101510.36
2019-03-20T16:57:57.617Z,101519.20
2019-03-20T17:00:26.406Z,101520.56
2019-03-20T17:02:53.468Z,101519.73
2019-03-20T17:05:20.771Z,101530.27
2019-03-20T17:07:48.054Z,101528.08
2019-03-20T17:10:17.562Z,101533.78
2019-03-20T17:12:44.650Z,101542.58
2019-03-20T17:15:15.084Z,101540.84
2019-03-20T17:17:42.182Z,101554.14
2019-03-20T17:20:09.365Z,101559.92
2019-03-20T17:22:41.896Z,101549.42
2019-03-20T17:25:05.896Z,101557.43
2019-03-20T17:27:32.972Z,101568.48
2019-03-20T17:30:00.033Z,101567.20
2019-03-20T17:32:27.116Z,101571.66
2019-03-20T17:34:54.198Z,101576.06
2019-03-20T17:37:21.250Z,101587.54
2019-03-20T17:39:49.208Z,101591.53
2019-03-20T17:42:16.398Z,101598.17
2019-03-20T17:44:43.475Z,101598.20
2019-03-20T17:47:10.659Z,101596.92
2019-03-20T17:49:37.722Z,101605.36
2019-03-20T17:52:04.809Z,101610.70
2019-03-20T17:54:31.878Z,101614.28
2019-03-20T17:56:58.987Z,101619.16
2019-03-20T17:59:26.075Z,101624.50
2019-03-20T18:01:53.144Z,101634.70
2019-03-20T18:04:20.215Z,101636.05
2019-03-20T18:06:47.312Z,101636.97
2019-03-20T18:09:17.207Z,101636.55
2019-03-20T18:11:47.772Z,101640.98
2019-03-20T18:14:13.251Z,101641.91
2019-03-20T18:16:40.336Z,101640.22
2019-03-20T18:19:07.403Z,101643.75
2019-03-20T18:21:34.470Z,101638.48
2019-03-20T18:24:01.547Z,101659.66
2019-03-20T18:26:28.620Z,101664.07
2019-03-20T18:28:55.724Z,101664.09
2019-03-20T18:31:22.799Z,101664.13
2019-03-20T18:33:49.992Z,101663.30
2019-03-20T18:36:17.059Z,101663.35
2019-03-20T18:38:44.135Z,101674.81
2019-03-20T18:41:11.222Z,101671.32
2019-03-20T18:43:38.299Z,101679.30
2019-03-20T18:46:05.381Z,101685.45
2019-03-20T18:48:32.455Z,101694.72
2019-03-20T18:50:59.516Z,101702.19
2019-03-20T18:53:26.591Z,101706.19
2019-03-20T18:55:53.676Z,101713.64
2019-03-20T18:58:20.752Z,101713.67
2019-03-20T19:00:47.822Z,101710.59
2019-03-20T19:03:14.969Z,101725.98
2019-03-20T19:05:51.449Z,101720.71
2019-03-20T19:08:18.672Z,101722.03
2019-03-20T19:10:45.916Z,101728.20
2019-03-20T19:13:12.996Z,101723.34
2019-03-20T19:15:40.082Z,101725.12
2019-03-20T19:18:07.175Z,101735.25
2019-03-20T19:20:34.281Z,101736.59
2019-03-20T19:23:01.336Z,101739.25
2019-03-20T19:25:28.430Z,101737.48
2019-03-20T19:27:55.480Z,101739.27
2019-03-20T19:30:22.570Z,101743.22
2019-03-20T19:32:49.690Z,101752.02
2019-03-20T19:35:16.790Z,101756.87
2019-03-20T19:37:43.867Z,101763.88
2019-03-20T19:40:11.500Z,101765.59
2019-03-20T19:42:38.579Z,101763.86
2019-03-20T19:45:06.186Z,101766.48
2019-03-20T19:47:33.224Z,101762.98
2019-03-20T19:50:00.619Z,101761.22
2019-03-20T19:52:28.797Z,101753.31
2019-03-20T19:54:55.879Z,101748.05
2019-03-20T19:57:22.990Z,101755.50
2019-03-20T19:59:50.076Z,101751.11
2019-03-20T20:02:17.143Z,101755.08
2019-03-20T20:04:44.251Z,101757.71
2019-03-20T20:07:11.326Z,101748.05
2019-03-20T20:09:38.445Z,101745.00
2019-03-20T20:12:05.540Z,101747.63
2019-03-20T20:14:32.599Z,101748.96
2019-03-20T20:16:59.690Z,101763.02
2019-03-20T20:19:26.767Z,101765.63
2019-03-20T20:21:53.846Z,101760.80
2019-03-20T20:24:20.940Z,101760.38
2019-03-20T20:26:48.063Z,101761.70
2019-03-20T20:29:15.175Z,101757.75
2019-03-20T20:31:42.253Z,101759.92
2019-03-20T20:34:09.328Z,101761.70
2019-03-20T20:36:36.411Z,101771.80
2019-03-20T20:39:06.056Z,101778.38
2019-03-20T20:41:33.351Z,101774.85
2019-03-20T20:44:00.491Z,101770.02
2019-03-20T20:46:27.612Z,101777.91
2019-03-20T20:48:54.683Z,101787.13
2019-03-20T20:51:21.785Z,101781.84
2019-03-20T20:53:48.845Z,101778.34
2019-03-20T20:56:16.008Z,101776.13
2019-03-20T20:58:43.067Z,101783.14
2019-03-20T21:01:10.192Z,101781.83
2019-03-20T21:03:37.258Z,101777.02
2019-03-20T21:06:04.326Z,101777.44
2019-03-20T21:08:31.399Z,101775.25
2019-03-20T21:10:58.463Z,101778.30
2019-03-20T21:13:25.525Z,101780.52
2019-03-20T21:15:56.274Z,101784.00
2019-03-20T21:19:20.336Z,101776.11
2019-03-20T21:22:41.492Z,101788.84
2019-03-20T21:25:09.151Z,101775.67
2019-03-20T21:28:28.170Z,101775.24
2019-03-20T21:31:19.201Z,101778.73
2019-03-20T21:34:34.121Z,101783.13
2019-03-20T21:37:30.062Z,101783.95
2019-03-20T21:39:57.661Z,101783.50
2019-03-20T21:43:17.607Z,101776.03
2019-03-20T21:46:32.539Z,101795.31
2019-03-20T21:49:00.141Z,101797.06
2019-03-20T21:51:27.734Z,101792.25
2019-03-20T21:54:33.740Z,101793.57
2019-03-20T21:57:12.834Z,101802.33
2019-03-20T22:00:14.707Z,101800.56
2019-03-20T22:02:42.593Z,101800.56
2019-03-20T22:05:34.691Z,101803.20
2019-03-20T22:08:02.284Z,101803.66
2019-03-20T22:11:06.147Z,101807.16
2019-03-20T22:13:44.039Z,101814.62
2019-03-20T22:16:42.371Z,101815.48
2019-03-20T22:19:45.746Z,101820.73
2019-03-20T22:22:41.804Z,101816.78
2019-03-20T22:26:02.732Z,101824.64
2019-03-20T22:29:23.294Z,101831.22
2019-03-20T22:32:50.458Z,101832.97
2019-03-20T22:35:38.189Z,101843.48
2019-03-20T22:38:13.643Z,101831.20
2019-03-20T22:41:30.929Z,101835.56
2019-03-20T22:44:02.523Z,101839.52
2019-03-20T22:47:06.656Z,101837.72
2019-03-20T22:50:17.009Z,101848.66
2019-03-20T22:53:26.854Z,101857.86
2019-03-20T22:56:37.583Z,101845.11
2019-03-20T22:59:05.218Z,101856.06
2019-03-20T23:02:12.105Z,101838.11
2019-03-20T23:04:49.071Z,101842.02
2019-03-20T23:07:16.674Z,101849.94
2019-03-20T23:09:44.266Z,101844.67
2019-03-20T23:12:13.804Z,101849.05
2019-03-20T23:14:41.415Z,101852.14
2019-03-20T23:17:09.018Z,101853.92
2019-03-20T23:19:37.600Z,101851.72
2019-03-20T23:22:05.311Z,101847.34
2019-03-20T23:24:32.925Z,101839.03
2019-03-20T23:27:02.203Z,101846.50
2019-03-20T23:29:29.815Z,101844.77
2019-03-20T23:31:57.413Z,101835.56
2019-03-20T23:34:25.030Z,101846.52
2019-03-20T23:36:52.620Z,101846.96
2019-03-20T23:39:20.212Z,101839.95
2019-03-20T23:41:47.811Z,101834.69
2019-03-20T23:44:15.412Z,101825.91
2019-03-20T23:46:43.028Z,101825.44
2019-03-20T23:49:14.185Z,101829.39
2019-03-20T23:51:41.780Z,101830.24
2019-03-20T23:54:09.601Z,101825.42
2019-03-20T23:56:37.365Z,101820.14
2019-03-20T23:59:05.296Z,101818.41
